createdAt,value
2023-06-07T00:01:53.752Z,19.03
2023-06-07T00:04:20.339Z,19.05
2023-06-07T00:06:48.258Z,19.01
2023-06-07T00:09:15.365Z,18.87
2023-06-07T00:11:43.624Z,18.99
2023-06-07T00:14:10.153Z,18.87
2023-06-07T00:16:36.639Z,18.81
2023-06-07T00:19:04.642Z,18.95
2023-06-07T00:21:31.357Z,19.01
2023-06-07T00:23:57.961Z,18.97
2023-06-07T00:26:25.094Z,18.97
2023-06-07T00:28:52.534Z,18.89
2023-06-07T00:31:19.031Z,18.90
2023-06-07T00:33:45.695Z,18.81
2023-06-07T00:36:12.130Z,18.95
2023-06-07T00:38:38.680Z,18.76
2023-06-07T00:41:05.177Z,18.73
2023-06-07T00:43:31.637Z,18.75
2023-06-07T00:45:58.300Z,18.75
2023-06-07T00:48:24.839Z,18.78
2023-06-07T00:50:52.379Z,18.56
2023-06-07T00:53:18.974Z,18.60
2023-06-07T00:55:46.378Z,18.59
2023-06-07T00:58:12.949Z,18.62
2023-06-07T01:00:39.419Z,18.76
2023-06-07T01:03:07.119Z,18.78
2023-06-07T01:05:34.283Z,18.70
2023-06-07T01:08:01.384Z,18.62
2023-06-07T01:10:28.494Z,18.60
2023-06-07T01:12:58.065Z,18.41
2023-06-07T01:15:25.505Z,18.39
2023-06-07T01:17:54.966Z,18.58
2023-06-07T01:20:25.533Z,18.37
2023-06-07T01:22:58.045Z,18.55
2023-06-07T01:25:25.299Z,18.53
2023-06-07T01:27:58.138Z,18.57
2023-06-07T01:30:26.043Z,18.53
2023-06-07T01:32:53.801Z,18.54
2023-06-07T01:51:42.451Z,17.39
2023-06-07T01:54:09.369Z,17.72
2023-06-07T01:56:54.663Z,17.98
2023-06-07T01:59:21.252Z,18.16
2023-06-07T02:01:50.919Z,18.29
2023-06-07T02:04:20.925Z,18.14
2023-06-07T02:06:51.891Z,18.25
2023-06-07T02:09:20.393Z,18.32
2023-06-07T02:11:47.784Z,18.40
2023-06-07T02:14:14.352Z,18.40
2023-06-07T02:16:41.755Z,18.35
2023-06-07T02:19:09.171Z,18.35
2023-06-07T02:21:37.604Z,18.43
2023-06-07T02:24:05.411Z,18.39
2023-06-07T02:26:31.888Z,18.37
2023-06-07T02:28:58.367Z,18.43
2023-06-07T02:31:25.640Z,18.48
2023-06-07T02:33:52.737Z,18.50
2023-06-07T02:36:22.229Z,18.39
2023-06-07T02:38:49.302Z,18.31
2023-06-07T02:41:16.827Z,18.43
2023-06-07T02:43:44.986Z,18.36
2023-06-07T02:46:12.621Z,18.33
2023-06-07T02:48:39.940Z,18.29
2023-06-07T02:51:06.523Z,18.34
2023-06-07T02:53:32.957Z,18.27
2023-06-07T02:55:59.460Z,18.19
2023-06-07T02:58:25.953Z,18.14
2023-06-07T03:00:55.618Z,18.35
2023-06-07T03:03:22.343Z,18.37
2023-06-07T03:05:50.832Z,18.38
2023-06-07T03:08:17.368Z,18.15
2023-06-07T03:10:43.874Z,18.25
2023-06-07T03:13:10.330Z,18.31
2023-06-07T03:15:39.772Z,18.15
2023-06-07T03:18:06.402Z,18.23
2023-06-07T03:20:35.760Z,18.21
2023-06-07T03:23:04.060Z,18.18
2023-06-07T03:25:31.301Z,18.08
2023-06-07T03:27:58.257Z,18.25
2023-06-07T03:30:24.787Z,18.22
2023-06-07T03:32:52.223Z,18.01
2023-06-07T03:35:19.556Z,18.13
2023-06-07T03:37:46.042Z,18.16
2023-06-07T03:40:13.144Z,18.21
2023-06-07T03:42:39.928Z,18.13
2023-06-07T03:45:06.999Z,18.17
2023-06-07T03:47:33.974Z,17.89
2023-06-07T03:50:00.887Z,18.11
2023-06-07T03:52:27.267Z,18.24
2023-06-07T03:54:53.833Z,18.05
2023-06-07T03:57:20.331Z,18.04
2023-06-07T03:59:46.807Z,18.15
2023-06-07T04:02:13.630Z,18.21
2023-06-07T04:04:40.230Z,18.30
2023-06-07T04:07:08.607Z,18.13
2023-06-07T04:09:35.196Z,18.35
2023-06-07T04:12:05.637Z,18.35
2023-06-07T04:14:32.088Z,18.30
2023-06-07T04:16:58.645Z,18.33
2023-06-07T04:19:25.147Z,18.32
2023-06-07T04:21:54.153Z,18.37
2023-06-07T04:24:20.740Z,18.34
2023-06-07T04:26:49.253Z,18.40
2023-06-07T04:29:16.121Z,18.24
2023-06-07T04:31:43.626Z,18.27
2023-06-07T04:34:11.288Z,18.06
2023-06-07T04:36:40.166Z,18.27
2023-06-07T04:39:10.262Z,18.34
2023-06-07T04:41:37.371Z,18.37
2023-06-07T04:44:06.846Z,18.27
2023-06-07T04:46:33.409Z,18.13
2023-06-07T04:49:00.298Z,18.17
2023-06-07T04:51:30.550Z,18.20
2023-06-07T04:53:59.664Z,18.06
2023-06-07T04:56:29.633Z,17.81
2023-06-07T04:58:56.778Z,18.03
2023-06-07T05:01:24.145Z,18.09
2023-06-07T05:03:58.526Z,17.82
2023-06-07T05:06:25.024Z,17.98
2023-06-07T05:08:51.599Z,18.15
2023-06-07T05:11:18.089Z,18.04
2023-06-07T05:13:44.561Z,18.10
2023-06-07T05:16:17.426Z,18.25
2023-06-07T05:18:47.438Z,18.33
2023-06-07T05:21:15.230Z,18.45
2023-06-07T05:23:45.207Z,18.12
2023-06-07T05:26:12.392Z,18.36
2023-06-07T05:28:39.048Z,18.22
2023-06-07T05:31:05.739Z,18.25
2023-06-07T05:33:32.269Z,18.37
2023-06-07T05:35:59.184Z,18.19
2023-06-07T05:38:26.670Z,18.42
2023-06-07T05:40:55.494Z,18.54
2023-06-07T05:43:22.024Z,18.71
2023-06-07T05:45:48.661Z,18.69
2023-06-07T05:48:15.225Z,18.60
2023-06-07T05:50:41.784Z,18.47
2023-06-07T05:53:08.400Z,18.82
2023-06-07T05:55:35.766Z,18.77
2023-06-07T05:58:02.259Z,18.98
2023-06-07T06:00:29.893Z,19.14
2023-06-07T06:02:57.874Z,19.27
2023-06-07T06:05:29.298Z,19.27
2023-06-07T06:07:59.376Z,19.01
2023-06-07T06:10:27.301Z,18.95
2023-06-07T06:12:56.810Z,19.14
2023-06-07T06:15:25.712Z,19.20
2023-06-07T06:17:55.492Z,19.47
2023-06-07T06:20:23.108Z,19.59
2023-06-07T06:22:49.884Z,19.52
2023-06-07T06:25:16.369Z,19.44
2023-06-07T06:27:43.183Z,19.35
2023-06-07T06:30:10.134Z,19.21
2023-06-07T06:32:36.994Z,19.40
2023-06-07T06:35:04.431Z,19.71
2023-06-07T06:37:31.100Z,19.85
2023-06-07T06:39:57.616Z,20.00
2023-06-07T06:42:24.216Z,20.14
2023-06-07T06:44:50.794Z,20.20
2023-06-07T06:47:17.341Z,20.08
2023-06-07T06:49:43.950Z,20.24
2023-06-07T06:52:11.476Z,20.15
2023-06-07T06:54:38.005Z,20.28
2023-06-07T06:57:04.909Z,20.37
2023-06-07T06:59:31.446Z,20.44
2023-06-07T07:01:58.151Z,20.37
2023-06-07T07:04:24.831Z,20.40
2023-06-07T07:06:54.402Z,20.63
2023-06-07T07:09:20.998Z,20.49
2023-06-07T07:11:47.425Z,20.80
2023-06-07T07:14:13.985Z,20.96
2023-06-07T07:16:40.690Z,20.98
2023-06-07T07:19:07.252Z,21.09
2023-06-07T07:21:33.804Z,21.23
2023-06-07T07:24:00.694Z,21.50
2023-06-07T07:26:28.562Z,21.34
2023-06-07T07:28:55.098Z,21.51
2023-06-07T07:31:22.428Z,21.70
2023-06-07T07:33:49.506Z,21.92
2023-06-07T07:36:17.432Z,21.96
2023-06-07T07:38:47.113Z,21.69
2023-06-07T07:41:15.340Z,21.85
2023-06-07T07:43:42.048Z,21.90
2023-06-07T07:46:08.853Z,21.81
2023-06-07T07:48:38.429Z,21.69
2023-06-07T07:51:05.676Z,21.98
2023-06-07T07:53:32.616Z,22.43
2023-06-07T07:55:59.096Z,22.44
2023-06-07T07:58:26.654Z,22.16
2023-06-07T08:00:53.900Z,22.37
2023-06-07T08:03:20.805Z,22.46
2023-06-07T08:05:47.467Z,23.33
2023-06-07T08:08:15.924Z,23.60
2023-06-07T08:10:42.472Z,23.46
2023-06-07T08:13:08.875Z,23.49
2023-06-07T08:15:35.407Z,23.73
2023-06-07T08:18:01.901Z,23.82
2023-06-07T08:20:28.709Z,24.05
2023-06-07T08:22:55.285Z,23.44
2023-06-07T08:25:21.854Z,23.65
2023-06-07T08:27:48.414Z,23.62
2023-06-07T08:30:15.361Z,23.78
2023-06-07T08:32:46.323Z,23.98
2023-06-07T08:35:13.002Z,24.33
2023-06-07T08:37:39.541Z,24.23
2023-06-07T08:40:07.365Z,24.04
2023-06-07T08:42:34.858Z,23.87
2023-06-07T08:45:02.062Z,24.00
2023-06-07T08:47:29.780Z,23.55
2023-06-07T08:49:57.617Z,23.44
2023-06-07T08:52:27.897Z,23.49
2023-06-07T08:54:59.858Z,23.30
2023-06-07T08:57:27.301Z,23.14
2023-06-07T08:59:53.979Z,22.98
2023-06-07T09:02:25.722Z,22.95
2023-06-07T09:04:52.625Z,23.39
2023-06-07T09:07:19.226Z,23.29
2023-06-07T09:09:45.740Z,23.74
2023-06-07T09:12:12.554Z,23.79
2023-06-07T09:14:39.372Z,23.90
2023-06-07T09:17:06.338Z,24.12
2023-06-07T09:19:39.043Z,24.29
2023-06-07T09:22:08.459Z,24.16
2023-06-07T09:24:35.861Z,24.46
2023-06-07T09:27:04.457Z,24.47
2023-06-07T09:29:40.092Z,24.25
2023-06-07T09:32:25.305Z,24.61
2023-06-07T09:34:54.358Z,24.49
2023-06-07T09:37:23.741Z,24.14
2023-06-07T09:39:54.698Z,24.57
2023-06-07T09:42:22.117Z,24.19
2023-06-07T09:44:49.328Z,23.99
2023-06-07T09:47:24.881Z,24.36
2023-06-07T09:50:20.120Z,24.42
2023-06-07T09:52:56.160Z,24.95
2023-06-07T09:55:28.775Z,24.77
2023-06-07T09:58:26.388Z,24.94
2023-06-07T10:00:55.145Z,25.06
2023-06-07T10:03:21.982Z,25.24
2023-06-07T10:05:48.755Z,25.39
2023-06-07T10:08:20.864Z,24.92
2023-06-07T10:10:49.920Z,24.82
2023-06-07T10:13:19.520Z,24.79
2023-06-07T10:15:47.569Z,24.98
2023-06-07T10:18:20.207Z,24.83
2023-06-07T10:21:02.067Z,24.67
2023-06-07T10:23:48.442Z,24.80
2023-06-07T10:26:44.466Z,25.25
2023-06-07T10:29:21.845Z,25.24
2023-06-07T10:31:59.208Z,25.87
2023-06-07T10:34:28.561Z,25.63
2023-06-07T10:36:55.488Z,26.31
2023-06-07T10:39:22.290Z,26.23
2023-06-07T10:41:49.545Z,26.74
2023-06-07T10:44:16.781Z,26.46
2023-06-07T10:46:43.442Z,26.81
2023-06-07T10:49:40.819Z,27.12
2023-06-07T10:52:07.749Z,27.27
2023-06-07T10:54:41.811Z,27.34
2023-06-07T10:57:08.524Z,27.51
2023-06-07T10:59:39.056Z,26.89
2023-06-07T11:02:25.485Z,27.04
2023-06-07T11:04:54.512Z,27.17
2023-06-07T11:07:30.016Z,27.40
2023-06-07T11:10:09.317Z,27.11
2023-06-07T11:12:36.276Z,27.11
2023-06-07T11:15:18.311Z,26.98
2023-06-07T11:18:01.586Z,26.53
2023-06-07T11:20:37.901Z,27.20
2023-06-07T11:23:24.223Z,26.90
2023-06-07T11:26:09.793Z,26.57
2023-06-07T11:28:39.302Z,27.10
2023-06-07T11:31:13.117Z,26.88
2023-06-07T11:33:43.874Z,27.07
2023-06-07T11:36:20.433Z,26.98
2023-06-07T11:38:51.708Z,27.21
2023-06-07T11:41:18.385Z,26.36
2023-06-07T11:43:46.796Z,26.65
2023-06-07T11:46:19.299Z,26.65
2023-06-07T11:48:46.790Z,26.65
2023-06-07T11:51:14.021Z,26.15
2023-06-07T11:53:40.515Z,26.44
2023-06-07T11:56:34.737Z,26.47
2023-06-07T11:59:01.702Z,26.43
2023-06-07T12:01:28.944Z,25.97
2023-06-07T12:03:57.291Z,26.04
2023-06-07T12:06:27.622Z,26.04
2023-06-07T12:08:54.142Z,26.08
2023-06-07T12:11:28.359Z,26.08
2023-06-07T12:14:02.665Z,26.03
2023-06-07T12:26:16.460Z,27.20
2023-06-07T12:28:56.028Z,27.12
2023-06-07T12:31:34.378Z,27.48
2023-06-07T12:34:08.379Z,27.49
2023-06-07T12:36:36.492Z,27.39
2023-06-07T12:39:18.648Z,27.59
2023-06-07T12:42:06.526Z,27.59
2023-06-07T12:48:24.763Z,27.93
2023-06-07T12:50:51.684Z,27.67
2023-06-07T12:53:55.193Z,27.62
2023-06-07T12:56:22.636Z,27.98
2023-06-07T13:16:57.235Z,28.48
2023-06-07T13:19:25.573Z,28.33
2023-06-07T13:22:44.778Z,28.38
2023-06-07T13:25:11.308Z,28.73
2023-06-07T13:27:46.291Z,28.22
2023-06-07T13:30:59.769Z,28.65
2023-06-07T13:33:29.208Z,28.64
2023-06-07T13:46:36.047Z,28.93
2023-06-07T13:49:06.886Z,29.14
2023-06-07T13:51:36.812Z,29.09
2023-06-07T13:54:03.720Z,29.21
2023-06-07T13:56:30.247Z,29.11
2023-06-07T13:59:16.043Z,29.16
2023-06-07T14:01:44.780Z,28.58
2023-06-07T14:07:28.694Z,28.61
2023-06-07T14:21:07.493Z,28.03
2023-06-07T14:23:41.140Z,28.91
2023-06-07T14:26:07.668Z,29.36
2023-06-07T14:28:39.941Z,29.58
2023-06-07T14:31:09.714Z,29.28
2023-06-07T14:33:45.824Z,29.37
2023-06-07T14:36:42.764Z,28.98
2023-06-07T14:39:12.684Z,28.34
2023-06-07T14:44:38.690Z,27.93
2023-06-07T14:53:26.598Z,28.05
2023-06-07T14:56:04.683Z,28.21
2023-06-07T14:58:53.820Z,27.46
2023-06-07T15:01:28.109Z,28.13
2023-06-07T15:08:07.422Z,28.49
2023-06-07T15:10:34.021Z,27.97
2023-06-07T15:13:00.906Z,28.30
2023-06-07T15:15:29.355Z,27.89
2023-06-07T15:17:57.960Z,27.47
2023-06-07T15:20:27.800Z,27.69
2023-06-07T15:22:54.440Z,27.37
2023-06-07T15:25:21.198Z,27.33
2023-06-07T15:27:47.821Z,27.14
2023-06-07T15:30:14.432Z,27.09
2023-06-07T15:32:41.170Z,26.88
2023-06-07T15:35:10.808Z,26.83
2023-06-07T15:37:39.162Z,26.95
2023-06-07T15:40:07.186Z,27.01
2023-06-07T15:42:37.665Z,26.72
2023-06-07T15:45:06.356Z,26.98
2023-06-07T15:47:32.974Z,26.79
2023-06-07T15:53:34.963Z,26.89
2023-06-07T15:56:01.475Z,26.68
2023-06-07T15:58:27.963Z,26.50
2023-06-07T16:00:54.424Z,26.60
2023-06-07T16:03:21.618Z,26.75
2023-06-07T16:05:48.609Z,26.49
2023-06-07T16:08:15.181Z,26.88
2023-06-07T16:10:41.730Z,26.74
2023-06-07T16:13:08.189Z,26.53
2023-06-07T16:15:35.136Z,26.64
2023-06-07T16:18:01.642Z,26.53
2023-06-07T16:20:28.708Z,26.61
2023-06-07T16:22:55.443Z,26.57
2023-06-07T16:25:21.920Z,26.83
2023-06-07T16:27:48.439Z,26.94
2023-06-07T16:30:15.196Z,26.94
2023-06-07T16:32:41.764Z,27.03
2023-06-07T16:35:08.410Z,26.78
2023-06-07T16:37:34.963Z,27.06
2023-06-07T16:40:01.545Z,27.05
2023-06-07T16:42:30.026Z,27.21
2023-06-07T16:44:57.746Z,27.54
2023-06-07T16:47:26.093Z,27.49
2023-06-07T16:49:56.847Z,27.21
2023-06-07T16:52:23.745Z,27.44
2023-06-07T16:54:57.342Z,27.37
2023-06-07T16:57:27.147Z,27.09
2023-06-07T16:59:53.745Z,27.29
2023-06-07T17:02:20.625Z,27.26
2023-06-07T17:04:47.261Z,27.19
2023-06-07T17:07:13.936Z,27.20
2023-06-07T17:09:40.635Z,27.48
2023-06-07T17:12:08.128Z,27.17
2023-06-07T17:14:34.695Z,27.33
2023-06-07T17:17:07.519Z,27.06
2023-06-07T17:19:36.735Z,26.79
2023-06-07T17:22:12.978Z,27.04
2023-06-07T17:24:39.568Z,27.17
2023-06-07T17:27:36.566Z,27.16
2023-06-07T17:38:24.177Z,26.70
2023-06-07T17:40:50.904Z,26.81
2023-06-07T17:43:17.569Z,26.84
2023-06-07T17:45:45.232Z,26.51
2023-06-07T17:48:18.073Z,26.22
2023-06-07T17:50:56.673Z,26.59
2023-06-07T17:53:23.375Z,26.22
2023-06-07T17:55:50.417Z,26.44
2023-06-07T17:58:17.615Z,26.30
2023-06-07T18:00:48.781Z,26.09
2023-06-07T18:03:19.736Z,26.19
2023-06-07T18:05:47.061Z,26.16
2023-06-07T18:08:13.808Z,26.16
2023-06-07T18:10:40.695Z,26.25
2023-06-07T18:13:07.432Z,25.91
2023-06-07T18:15:35.918Z,25.95
2023-06-07T18:18:02.649Z,25.95
2023-06-07T18:20:29.682Z,25.92
2023-06-07T18:22:57.894Z,25.64
2023-06-07T18:25:27.702Z,25.65
2023-06-07T18:27:54.242Z,25.25
2023-06-07T18:30:20.811Z,25.02
2023-06-07T18:33:07.174Z,25.02
2023-06-07T18:35:38.819Z,24.89
2023-06-07T18:38:15.181Z,24.58
2023-06-07T18:40:41.840Z,24.69
2023-06-07T18:43:17.869Z,24.87
2023-06-07T18:45:44.678Z,24.80
2023-06-07T18:48:11.648Z,24.77
2023-06-07T18:50:38.524Z,24.27
2023-06-07T18:53:05.166Z,24.07
2023-06-07T18:55:31.851Z,24.17
2023-06-07T18:57:58.444Z,24.09
2023-06-07T19:00:25.447Z,24.32
2023-06-07T19:02:52.892Z,24.27
2023-06-07T19:05:26.250Z,24.09
2023-06-07T19:07:53.025Z,24.00
2023-06-07T19:10:19.701Z,23.96
2023-06-07T19:12:55.912Z,24.14
2023-06-07T19:15:22.780Z,23.86
2023-06-07T19:17:52.657Z,24.03
2023-06-07T19:20:19.487Z,23.85
2023-06-07T19:22:49.897Z,23.94
2023-06-07T19:25:17.349Z,23.72
2023-06-07T19:27:47.181Z,23.57
2023-06-07T19:30:21.396Z,23.63
2023-06-07T19:32:49.735Z,23.47
2023-06-07T19:35:19.695Z,23.71
2023-06-07T19:37:58.278Z,23.55
2023-06-07T19:58:23.241Z,22.96
2023-06-07T20:04:30.686Z,22.89
2023-06-07T20:06:59.896Z,23.16
2023-06-07T20:09:29.405Z,23.08
2023-06-07T20:12:04.087Z,22.71
2023-06-07T20:17:48.574Z,22.52
2023-06-07T20:20:15.859Z,22.68
2023-06-07T20:22:46.180Z,22.59
2023-06-07T20:25:12.839Z,22.26
2023-06-07T20:27:39.284Z,22.60
2023-06-07T20:30:07.103Z,22.30
2023-06-07T20:32:33.856Z,22.34
2023-06-07T20:35:00.330Z,22.52
2023-06-07T20:37:26.800Z,22.07
2023-06-07T20:39:53.313Z,22.12
2023-06-07T20:42:22.440Z,22.05
2023-06-07T20:44:53.388Z,22.17
2023-06-07T20:47:20.804Z,22.23
2023-06-07T20:49:47.298Z,22.36
2023-06-07T20:52:13.775Z,22.07
2023-06-07T20:54:40.290Z,22.21
2023-06-07T20:57:07.305Z,22.19
2023-06-07T20:59:34.976Z,22.24
2023-06-07T21:02:01.751Z,22.08
2023-06-07T21:04:28.341Z,22.05
2023-06-07T21:07:30.654Z,22.00
2023-06-07T21:09:57.295Z,22.05
2023-06-07T21:12:24.016Z,22.09
2023-06-07T21:14:52.405Z,21.99
2023-06-07T21:17:19.083Z,21.77
2023-06-07T21:19:47.932Z,21.94
2023-06-07T21:22:14.413Z,21.69
2023-06-07T21:24:40.947Z,21.63
2023-06-07T21:27:07.959Z,21.61
2023-06-07T21:29:35.295Z,21.63
2023-06-07T21:32:04.889Z,21.59
2023-06-07T21:34:31.533Z,21.68
2023-06-07T21:36:58.082Z,21.74
2023-06-07T21:39:24.601Z,21.71
2023-06-07T21:41:51.168Z,21.56
2023-06-07T21:44:17.654Z,21.68
2023-06-07T21:46:44.216Z,21.67
2023-06-07T21:49:11.916Z,21.70
2023-06-07T21:51:40.687Z,21.62
2023-06-07T21:54:07.744Z,21.66
2023-06-07T21:56:34.268Z,21.62
2023-06-07T21:59:00.951Z,21.74
2023-06-07T22:01:29.869Z,21.78
2023-06-07T22:03:56.554Z,21.60
2023-06-07T22:06:23.003Z,21.70
2023-06-07T22:08:49.484Z,21.45
2023-06-07T22:11:19.172Z,21.35
2023-06-07T22:13:45.819Z,21.54
2023-06-07T22:16:13.797Z,21.64
2023-06-07T22:18:41.427Z,21.65
2023-06-07T22:21:08.042Z,21.53
2023-06-07T22:23:34.526Z,21.64
2023-06-07T22:26:01.191Z,21.34
2023-06-07T22:28:30.746Z,21.44
2023-06-07T22:30:58.667Z,21.26
2023-06-07T22:33:25.593Z,21.19
2023-06-07T22:35:57.850Z,21.23
2023-06-07T22:38:25.270Z,21.26
2023-06-07T22:40:54.647Z,21.32
2023-06-07T22:43:21.551Z,21.29
2023-06-07T22:45:48.364Z,21.32
2023-06-07T22:48:16.840Z,21.31
2023-06-07T22:50:43.503Z,21.40
2023-06-07T22:53:13.848Z,21.39
2023-06-07T22:55:42.142Z,21.22
2023-06-07T22:58:08.771Z,21.18
2023-06-07T23:00:36.068Z,21.25
2023-06-07T23:03:05.059Z,21.11
2023-06-07T23:05:31.723Z,21.10
2023-06-07T23:07:58.706Z,21.11
2023-06-07T23:10:35.379Z,21.19
2023-06-07T23:13:08.275Z,21.05
2023-06-07T23:15:36.557Z,20.94
2023-06-07T23:18:03.507Z,20.96
2023-06-07T23:20:34.105Z,20.85
2023-06-07T23:23:04.701Z,20.91
2023-06-07T23:25:31.885Z,20.83
2023-06-07T23:28:01.654Z,20.70
2023-06-07T23:30:28.214Z,20.72
2023-06-07T23:32:54.738Z,20.73
2023-06-07T23:35:21.698Z,20.72
2023-06-07T23:37:48.926Z,20.76
2023-06-07T23:40:16.978Z,20.72
2023-06-07T23:42:44.945Z,20.58
2023-06-07T23:45:14.521Z,20.60
2023-06-07T23:47:41.180Z,20.64
2023-06-07T23:50:08.864Z,20.60
2023-06-07T23:52:36.466Z,20.59
2023-06-07T23:55:03.263Z,20.54
2023-06-07T23:57:30.352Z,20.52
2023-06-07T23:59:57.290Z,20.54
